Time;durP1;ratioP1;P1;durP2;ratioP2;P2;SDS_P1;SDS_P2;PMS_P1;PMS_P2;Temp;Humidity;BMP_temperature;BMP_pressure;BME280_temperature;BME280_humidity;BME280_pressure;Samples;Min_cycle;Max_cycle;Signal;HPM_P1;HPM_P2
2024/04/13 00:02:39;;;;;;;7.87;3.60;;;;;;;14.97;51.88;100011.91;7422058;26;20223;-79
2024/04/13 00:05:59;;;;;;;8.30;4.80;;;;;;;14.98;51.92;100015.47;7422243;26;20602;-79
2024/04/13 00:09:23;;;;;;;4.10;3.50;;;;;;;15.11;51.78;100021.75;7421182;26;20745;-79
2024/04/13 00:12:46;;;;;;;7.13;3.80;;;;;;;15.24;51.30;100018.25;7426411;26;20333;-78
2024/04/13 00:16:09;;;;;;;6.47;3.80;;;;;;;15.31;51.04;100028.09;7426461;26;20247;-79
2024/04/13 00:19:33;;;;;;;4.50;3.50;;;;;;;15.37;50.96;100023.75;7425903;26;20243;-79
2024/04/13 00:22:56;;;;;;;6.50;4.13;;;;;;;15.00;51.82;100021.53;7426722;26;20318;-79
2024/04/13 00:26:20;;;;;;;5.07;4.13;;;;;;;14.91;52.17;100003.72;7427023;26;20568;-79
2024/04/13 00:29:46;;;;;;;4.03;3.67;;;;;;;15.07;52.15;100025.09;7426097;26;20317;-79
2024/04/13 00:33:09;;;;;;;6.60;4.20;;;;;;;14.72;52.97;100016.22;7426827;26;20721;-79
2024/04/13 00:36:35;;;;;;;8.23;4.20;;;;;;;15.07;52.02;100012.38;7426510;26;20258;-79
2024/04/13 00:39:58;;;;;;;6.03;4.27;;;;;;;14.79;52.89;99997.22;7427050;26;20239;-79
2024/04/13 00:43:18;;;;;;;8.63;4.63;;;;;;;14.78;53.09;99998.25;7426845;26;20275;-78
2024/04/13 00:46:44;;;;;;;4.57;3.93;;;;;;;14.76;53.09;100001.16;7425567;26;20229;-79
2024/04/13 00:50:11;;;;;;;6.23;4.27;;;;;;;14.59;53.21;100010.72;7424683;26;20670;-78
2024/04/13 00:53:37;;;;;;;8.63;4.27;;;;;;;14.53;53.50;99991.69;7425138;26;20254;-78
2024/04/13 00:57:00;;;;;;;7.00;4.60;;;;;;;14.34;54.08;99995.94;7424950;26;20222;-78
2024/04/13 01:00:22;;;;;;;6.73;4.13;;;;;;;14.51;53.93;100002.72;7425615;26;20242;-78
2024/04/13 01:03:49;;;;;;;6.07;3.97;;;;;;;14.83;52.33;99974.06;7424322;26;20272;-79
2024/04/13 01:07:10;;;;;;;4.67;3.67;;;;;;;15.14;51.42;99996.91;7424679;26;20220;-79
2024/04/13 01:10:33;;;;;;;5.50;3.93;;;;;;;15.03;51.69;99972.22;7425651;26;21264;-79
2024/04/13 01:13:56;;;;;;;4.60;3.90;;;;;;;15.16;51.44;99988.56;7425455;26;20271;-78
2024/04/13 01:17:17;;;;;;;8.17;4.50;;;;;;;14.57;52.32;99980.22;7424723;26;20231;-79
2024/04/13 01:20:43;;;;;;;5.97;4.50;;;;;;;14.32;54.08;99989.03;7424680;26;20251;-79
2024/04/13 01:24:10;;;;;;;6.57;4.90;;;;;;;14.58;53.33;99994.63;7424815;26;20259;-78
2024/04/13 01:27:33;;;;;;;5.77;4.90;;;;;;;14.31;54.25;100003.66;7424605;26;20269;-79
2024/04/13 01:30:56;;;;;;;7.17;4.47;;;;;;;14.38;54.11;99985.53;7425383;26;20239;-78
2024/04/13 01:34:20;;;;;;;5.37;4.87;;;;;;;14.47;53.79;99987.91;7424899;26;20301;-78
2024/04/13 01:37:41;;;;;;;6.47;4.40;;;;;;;14.43;53.49;99983.91;7424248;26;20217;-79
2024/04/13 01:41:07;;;;;;;5.67;4.50;;;;;;;14.15;54.51;99987.69;7424580;26;20341;-77
2024/04/13 01:44:30;;;;;;;9.00;4.70;;;;;;;14.02;54.57;99985.72;7425156;26;20584;-79
2024/04/13 01:47:50;;;;;;;5.37;4.57;;;;;;;14.33;54.52;99997.00;7423718;26;20966;-78
2024/04/13 01:51:14;;;;;;;10.00;4.60;;;;;;;14.34;54.31;99998.66;7470429;26;20734;-79
2024/04/13 01:54:37;;;;;;;6.53;4.67;;;;;;;14.68;53.14;99990.50;7474474;26;20564;-78
2024/04/13 01:58:03;;;;;;;5.70;4.57;;;;;;;14.52;52.84;99979.97;7473375;26;20225;-78
2024/04/13 02:01:23;;;;;;;6.27;4.33;;;;;;;14.29;53.62;99990.28;7458532;26;20284;-78
2024/04/13 02:04:47;;;;;;;6.33;4.80;;;;;;;14.28;53.41;99990.50;7473809;26;20230;-79
2024/04/13 02:08:11;;;;;;;6.73;4.43;;;;;;;13.90;55.26;99995.44;7473042;26;20277;-79
2024/04/13 02:11:31;;;;;;;7.27;4.20;;;;;;;13.58;55.51;99979.72;7473883;26;20239;-78
2024/04/13 02:14:57;;;;;;;5.40;4.93;;;;;;;13.78;54.95;99993.44;7474383;26;20258;-78
2024/04/13 02:18:20;;;;;;;5.00;4.50;;;;;;;13.66;55.48;99990.47;7473135;26;20276;-78
2024/04/13 02:21:41;;;;;;;9.17;4.57;;;;;;;13.86;55.80;99993.31;7479142;26;20613;-79
2024/04/13 02:25:08;;;;;;;6.43;4.50;;;;;;;14.21;54.60;99992.34;7483331;26;20264;-79
2024/04/13 02:28:29;;;;;;;5.73;4.43;;;;;;;14.01;54.74;99994.91;7478539;26;20811;-77
2024/04/13 02:31:54;;;;;;;6.73;4.40;;;;;;;14.45;53.17;100006.25;7474175;26;20233;-79
2024/04/13 02:35:18;;;;;;;6.30;4.37;;;;;;;14.16;53.43;99990.19;7473785;26;20257;-79
2024/04/13 02:38:41;;;;;;;6.77;4.80;;;;;;;14.10;54.43;100011.84;7477044;26;20217;-79
2024/04/13 02:42:02;;;;;;;6.03;5.30;;;;;;;14.24;53.19;100003.63;7482321;26;20237;-79
2024/04/13 02:45:26;;;;;;;7.40;4.90;;;;;;;13.77;54.25;99983.66;7471283;26;20245;-78
2024/04/13 02:48:49;;;;;;;5.63;4.93;;;;;;;13.38;56.52;99999.56;7471098;26;20216;-79
2024/04/13 02:52:12;;;;;;;8.70;5.10;;;;;;;13.23;57.00;99994.19;7471579;26;20574;-79
2024/04/13 02:55:33;;;;;;;5.73;4.67;;;;;;;13.45;56.58;99973.38;7471582;26;20225;-79
2024/04/13 02:58:56;;;;;;;6.90;5.03;;;;;;;13.26;56.79;99992.97;7470668;26;20266;-79
2024/04/13 03:02:19;;;;;;;7.07;5.27;;;;;;;13.35;56.63;99989.13;7470850;26;20757;-79
2024/04/13 03:05:43;;;;;;;6.30;4.93;;;;;;;13.17;57.16;99997.69;7471128;26;20417;-78
2024/04/13 03:09:07;;;;;;;8.20;5.20;;;;;;;13.45;56.36;99993.19;7470424;26;20230;-80
2024/04/13 03:12:28;;;;;;;7.57;4.97;;;;;;;13.67;56.31;99994.84;7471929;26;20225;-78
2024/04/13 03:16:00;;;;;;;9.57;5.73;;;;;;;13.76;56.05;99985.50;7470662;26;20297;-79
2024/04/13 03:19:24;;;;;;;6.37;5.00;;;;;;;13.67;55.37;99986.72;7469925;26;20693;-79
2024/04/13 03:22:50;;;;;;;5.83;5.20;;;;;;;13.78;55.85;99997.00;7471324;26;20222;-79
2024/04/13 03:26:10;;;;;;;6.70;5.70;;;;;;;13.49;57.08;99986.34;7470964;26;20229;-79
2024/04/13 03:29:34;;;;;;;6.00;5.07;;;;;;;13.88;55.42;99999.38;7470050;26;20274;-79
2024/04/13 03:32:54;;;;;;;6.33;4.90;;;;;;;13.64;55.57;99981.66;7471167;26;20229;-79
2024/04/13 03:36:17;;;;;;;5.83;5.27;;;;;;;13.47;56.24;99991.13;7471300;26;20230;-79
2024/04/13 03:39:45;;;;;;;8.43;5.00;;;;;;;13.52;56.34;99994.06;7470579;26;20260;-79
2024/04/13 03:43:08;;;;;;;6.33;5.13;;;;;;;13.66;55.88;99995.03;7470702;26;20226;-78
2024/04/13 03:46:31;;;;;;;6.60;5.73;;;;;;;13.70;55.49;99989.00;7474483;26;20555;-78
2024/04/13 03:49:54;;;;;;;7.63;5.10;;;;;;;13.51;56.08;99999.69;7471329;26;20282;-79
2024/04/13 03:53:18;;;;;;;7.63;5.20;;;;;;;13.59;55.72;99991.44;7475613;26;20228;-79
2024/04/13 03:56:44;;;;;;;6.90;5.83;;;;;;;13.53;55.27;99995.78;7475277;26;20232;-80
2024/04/13 04:00:08;;;;;;;7.00;5.60;;;;;;;13.44;55.97;99983.38;7475154;26;20282;-79
2024/04/13 04:03:29;;;;;;;5.83;5.23;;;;;;;13.63;55.34;99984.59;7474614;26;20271;-79
2024/04/13 04:06:52;;;;;;;6.40;5.13;;;;;;;13.48;55.60;100002.78;7475485;26;20232;-80
2024/04/13 04:10:15;;;;;;;7.77;5.37;;;;;;;13.07;56.09;99950.31;7475696;26;20307;-79
2024/04/13 04:13:39;;;;;;;6.23;4.87;;;;;;;13.81;55.44;99993.06;7475691;26;20267;-79
2024/04/13 04:17:02;;;;;;;6.40;5.47;;;;;;;13.62;55.12;99981.03;7462809;26;20342;-79
2024/04/13 04:20:25;;;;;;;6.43;5.60;;;;;;;13.64;55.25;99988.97;7426070;26;20236;-79
2024/04/13 04:23:48;;;;;;;7.43;5.63;;;;;;;13.57;55.40;99972.66;7426548;26;20593;-79
2024/04/13 04:27:09;;;;;;;6.97;5.50;;;;;;;13.36;55.94;99988.94;7425865;26;20225;-79
2024/04/13 04:30:35;;;;;;;7.43;6.43;;;;;;;13.37;56.54;99989.75;7426631;26;20234;-78
2024/04/13 04:33:58;;;;;;;12.13;5.93;;;;;;;13.49;56.28;99978.22;7426932;26;20222;-79
2024/04/13 04:37:20;;;;;;;8.40;6.20;;;;;;;13.44;56.28;99972.53;7426170;26;20252;-79
2024/04/13 04:40:43;;;;;;;7.73;6.30;;;;;;;12.92;58.22;99976.56;7426731;26;20234;-79
2024/04/13 04:44:04;;;;;;;10.10;6.87;;;;;;;13.34;57.86;99985.56;7426299;26;20772;-78
2024/04/13 04:47:30;;;;;;;10.23;7.10;;;;;;;13.69;56.85;99971.06;7425062;26;20272;-79
2024/04/13 04:50:56;;;;;;;9.07;6.50;;;;;;;13.67;56.66;99986.72;7426033;26;20243;-79
2024/04/13 04:54:19;;;;;;;7.50;5.77;;;;;;;13.95;56.38;99978.56;7426095;26;20222;-79
2024/04/13 04:57:41;;;;;;;6.67;6.00;;;;;;;13.93;56.11;99981.47;7423727;26;20565;-77
2024/04/13 05:01:06;;;;;;;9.23;6.17;;;;;;;13.84;55.97;99970.97;7425759;26;20234;-79
2024/04/13 05:04:30;;;;;;;10.17;6.13;;;;;;;13.95;55.98;99984.00;7426238;26;20304;-80
2024/04/13 05:07:53;;;;;;;8.90;5.30;;;;;;;14.00;55.43;99973.41;7425859;26;20222;-80
2024/04/13 05:11:16;;;;;;;10.30;6.00;;;;;;;13.78;56.00;99999.72;7427400;26;20248;-80
2024/04/13 05:14:40;;;;;;;7.57;6.80;;;;;;;13.72;57.04;99991.53;7427990;26;20245;-79
2024/04/13 05:18:02;;;;;;;8.43;6.80;;;;;;;14.41;55.55;100001.44;7424464;26;20590;-79
2024/04/13 05:21:27;;;;;;;8.47;5.63;;;;;;;14.37;54.82;99986.56;7452788;26;20709;-78
2024/04/13 05:24:48;;;;;;;10.50;5.67;;;;;;;14.49;54.16;100003.97;7424471;26;20229;-81
2024/04/13 05:28:11;;;;;;;7.40;6.27;;;;;;;13.99;55.14;99991.53;7425232;26;20641;-81
2024/04/13 05:31:35;;;;;;;9.43;6.33;;;;;;;14.42;53.89;99997.66;7458208;26;20241;-80
2024/04/13 05:34:58;;;;;;;6.67;5.87;;;;;;;14.25;54.70;99990.91;7474383;26;20241;-84
2024/04/13 05:38:24;;;;;;;7.17;5.93;;;;;;;14.44;54.71;100001.00;7471211;26;20233;-81
2024/04/13 05:41:47;;;;;;;6.27;5.50;;;;;;;14.36;54.92;100002.03;7471565;26;20240;-81
2024/04/13 05:45:08;;;;;;;9.83;5.93;;;;;;;14.44;56.00;99999.16;7472491;26;20720;-82
2024/04/13 05:48:31;;;;;;;9.33;5.80;;;;;;;14.33;54.77;100007.03;7474715;26;20271;-82
2024/04/13 05:51:54;;;;;;;8.83;6.20;;;;;;;14.73;53.76;99993.44;7475268;26;20272;-82
2024/04/13 05:55:20;;;;;;;7.63;6.23;;;;;;;14.96;54.72;99998.53;7476173;26;20241;-81
2024/04/13 05:58:43;;;;;;;9.70;5.97;;;;;;;15.18;53.76;99986.47;7474545;26;20238;-82
2024/04/13 06:02:06;;;;;;;7.80;5.43;;;;;;;15.23;53.47;99989.41;7476868;26;20781;-82
2024/04/13 06:05:30;;;;;;;8.37;5.67;;;;;;;16.03;52.45;99990.94;7460743;26;20236;-82
2024/04/13 06:08:50;;;;;;;5.90;5.23;;;;;;;16.31;51.48;99991.53;7473730;26;20769;-80
2024/04/13 06:12:16;;;;;;;11.87;5.17;;;;;;;16.77;51.25;100000.41;7454791;26;20793;-80
2024/04/13 06:15:37;;;;;;;9.97;5.60;;;;;;;17.44;49.05;99986.22;7442971;26;20245;-80
2024/04/13 06:19:00;;;;;;;9.43;5.33;;;;;;;17.42;48.30;99963.81;7460898;26;20571;-78
2024/04/13 06:22:23;;;;;;;7.73;5.13;;;;;;;17.64;48.17;99990.47;7470714;26;20235;-78
2024/04/13 06:25:48;;;;;;;6.10;4.80;;;;;;;18.33;46.87;99987.59;7471353;26;20244;-81
2024/04/13 06:29:14;;;;;;;8.43;4.83;;;;;;;18.45;47.69;99983.84;7448587;26;20284;-79
2024/04/13 06:32:36;;;;;;;8.13;5.30;;;;;;;19.08;45.71;99992.53;7469776;26;20242;-78
2024/04/13 06:35:59;;;;;;;5.07;4.57;;;;;;;19.92;43.66;99996.75;7470878;26;20282;-82
2024/04/13 06:39:22;;;;;;;10.07;5.57;;;;;;;20.21;42.75;99998.56;7473891;26;20292;-83
2024/04/13 06:42:43;;;;;;;8.47;4.90;;;;;;;20.90;41.51;99975.75;7481716;26;20239;-86
2024/04/13 06:46:13;;;;;;;7.87;5.13;;;;;;;20.54;41.64;99992.47;7485195;26;20244;-86
2024/04/13 06:49:39;;;;;;;6.80;4.40;;;;;;;21.24;40.17;99976.44;7483797;26;20235;-85
2024/04/13 06:53:02;;;;;;;5.73;4.73;;;;;;;21.28;40.06;99991.34;7486042;26;20236;-84
2024/04/13 06:56:26;;;;;;;6.40;4.57;;;;;;;21.54;39.61;99957.78;7485380;26;20246;-87
2024/04/13 06:59:47;;;;;;;5.80;4.43;;;;;;;22.35;38.15;99998.41;7481709;26;20326;-90
2024/04/13 07:03:13;;;;;;;4.93;4.17;;;;;;;22.67;36.78;99981.03;7464177;26;20310;-84
2024/04/13 07:06:38;;;;;;;6.17;4.40;;;;;;;22.66;36.91;99992.31;7450528;26;20237;-79
2024/04/13 07:09:59;;;;;;;6.83;4.17;;;;;;;22.92;36.38;99984.13;7463416;26;20683;-81
2024/04/13 07:13:22;;;;;;;10.00;3.90;;;;;;;22.46;37.40;99990.13;7469627;26;20758;-79
2024/04/13 07:16:45;;;;;;;7.83;4.47;;;;;;;23.05;36.75;99992.00;7430341;26;20284;-79
2024/04/13 07:20:09;;;;;;;5.77;4.40;;;;;;;23.61;36.31;99996.22;7417009;26;20246;-79
2024/04/13 07:23:32;;;;;;;21.53;5.80;;;;;;;23.56;36.33;99980.50;7420051;26;20228;-80
2024/04/13 07:26:52;;;;;;;8.13;4.27;;;;;;;23.95;35.88;99976.44;7420011;26;20271;-79
2024/04/13 07:30:16;;;;;;;9.83;4.30;;;;;;;22.75;35.41;99969.63;7419483;26;20274;-79
2024/04/13 07:33:39;;;;;;;5.63;4.10;;;;;;;23.12;37.00;99978.88;7425542;26;20584;-81
2024/04/13 07:37:03;;;;;;;24.77;5.30;;;;;;;23.49;36.00;99988.09;7470627;26;20732;-81
2024/04/13 07:40:41;;;;;;;5.50;3.77;;;;;;;23.00;37.12;99955.31;7475797;26;20605;-82
2024/04/13 07:44:04;;;;;;;8.33;4.47;;;;;;;22.72;37.81;99994.06;7471620;26;20257;-80
2024/04/13 07:47:25;;;;;;;9.20;4.30;;;;;;;23.25;37.06;99981.25;7467491;26;20231;-80
2024/04/13 07:50:48;;;;;;;7.37;4.37;;;;;;;23.17;37.43;99975.38;7468159;26;20258;-79
2024/04/13 07:54:14;;;;;;;6.53;4.23;;;;;;;23.27;36.28;99979.09;7469835;26;20270;-80
2024/04/13 07:57:35;;;;;;;4.87;4.10;;;;;;;23.51;36.25;99983.19;7474322;26;20267;-82
2024/04/13 08:00:58;;;;;;;5.27;3.67;;;;;;;24.76;34.44;99958.53;7478205;26;20237;-81
2024/04/13 08:04:22;;;;;;;7.23;4.10;;;;;;;24.31;35.21;99974.81;7476992;26;20284;-83
2024/04/13 08:07:42;;;;;;;7.73;3.90;;;;;;;23.67;35.78;99964.88;7475337;26;20734;-84
2024/04/13 08:11:12;;;;;;;5.90;4.20;;;;;;;22.43;37.57;99951.31;7470129;26;20249;-84
2024/04/13 08:14:35;;;;;;;8.03;3.83;;;;;;;22.61;38.03;99964.75;7479737;26;20266;-87
2024/04/13 08:17:59;;;;;;;5.47;3.77;;;;;;;24.43;35.62;99954.19;7471883;26;20262;-83
2024/04/13 08:21:22;;;;;;;6.27;3.40;;;;;;;24.11;35.40;99925.03;7476389;26;20629;-84
2024/04/13 08:24:46;;;;;;;6.00;3.60;;;;;;;25.08;34.16;99935.19;7479143;26;20705;-85
2024/04/13 08:28:12;;;;;;;4.77;3.53;;;;;;;25.60;33.20;99922.06;7477192;26;20779;-86
2024/04/13 08:31:35;;;;;;;4.97;3.53;;;;;;;26.52;31.11;99897.63;7466769;26;20239;-85
2024/04/13 08:34:55;;;;;;;4.03;3.40;;;;;;;25.98;32.37;99910.50;7475663;26;20339;-86
2024/04/13 08:38:19;;;;;;;4.80;3.10;;;;;;;27.36;30.42;99912.19;7475669;26;20233;-85
2024/04/13 08:41:47;;;;;;;6.67;3.53;;;;;;;27.43;30.23;99906.34;7451147;26;20849;-85
2024/04/13 08:45:14;;;;;;;6.43;3.53;;;;;;;26.67;30.87;99856.06;7426011;26;20743;-85
2024/04/13 08:48:38;;;;;;;6.67;3.50;;;;;;;27.28;31.68;99904.50;7425454;26;20234;-85
2024/04/13 08:52:02;;;;;;;4.67;3.40;;;;;;;26.93;31.54;99878.91;7426584;26;20287;-85
2024/04/13 08:55:25;;;;;;;5.63;3.70;;;;;;;25.96;32.46;99887.81;7426485;26;20224;-85
2024/04/13 08:58:50;;;;;;;6.17;3.63;;;;;;;26.00;33.73;99890.84;7426825;26;20224;-85
2024/04/13 09:02:16;;;;;;;5.23;3.63;;;;;;;26.44;32.47;99842.91;7426482;26;20567;-85
2024/04/13 09:05:40;;;;;;;5.53;3.13;;;;;;;26.53;33.02;99898.44;7427133;26;20272;-85
2024/04/13 09:09:08;;;;;;;4.93;3.20;;;;;;;26.28;32.22;99863.41;7425482;26;20229;-85
2024/04/13 09:12:29;;;;;;;5.77;3.37;;;;;;;26.24;31.54;99876.13;7425974;26;20294;-85
2024/04/13 09:15:52;;;;;;;5.07;3.23;;;;;;;26.73;32.01;99887.34;7427558;26;20228;-84
2024/04/13 09:19:18;;;;;;;5.90;3.80;;;;;;;26.67;31.44;99853.31;7426652;26;20241;-84
2024/04/13 09:22:46;;;;;;;4.40;3.37;;;;;;;26.78;31.21;99856.88;7434359;26;20224;-87
2024/04/13 09:26:07;;;;;;;5.77;3.30;;;;;;;26.97;31.11;99860.63;7455735;26;20228;-86
2024/04/13 09:29:33;;;;;;;5.53;3.50;;;;;;;27.48;30.39;99878.59;7482913;26;20243;-85
2024/04/13 09:32:59;;;;;;;7.73;3.17;;;;;;;27.46;30.35;99870.56;7485564;26;20281;-87
2024/04/13 09:36:27;;;;;;;4.33;2.87;;;;;;;27.42;29.86;99868.66;7476932;26;20729;-85
2024/04/13 09:39:51;;;;;;;4.47;3.00;;;;;;;27.51;30.07;99859.44;7483854;26;20772;-85
2024/04/13 09:43:22;;;;;;;5.70;3.30;;;;;;;28.18;28.66;99861.34;7483341;26;20762;-85
2024/04/13 09:46:49;;;;;;;4.23;2.67;;;;;;;28.16;28.63;99819.19;7483209;26;20240;-85
2024/04/13 09:50:13;;;;;;;3.17;2.60;;;;;;;28.45;28.66;99847.72;7484716;26;20590;-85
2024/04/13 09:53:42;;;;;;;6.17;2.80;;;;;;;27.73;28.89;99812.66;7485438;26;20269;-85
2024/04/13 09:57:03;;;;;;;3.63;2.50;;;;;;;28.93;27.50;99788.19;7484699;26;20223;-85
2024/04/13 10:00:27;;;;;;;5.07;2.70;;;;;;;29.85;26.73;99831.72;7484896;26;20321;-85
2024/04/13 10:04:01;;;;;;;4.73;2.60;;;;;;;29.18;26.75;99813.66;7476918;26;20280;-89
2024/04/13 10:07:24;;;;;;;3.50;2.40;;;;;;;28.71;27.32;99805.44;7474844;26;20234;-88
2024/04/13 10:11:09;;;;;;;3.67;2.73;;;;;;;28.27;27.68;99796.59;7484230;26;20262;-89
2024/04/13 10:14:33;;;;;;;7.13;4.53;;;;;;;28.69;27.77;99813.25;7484570;26;20240;-88
2024/04/13 10:17:54;;;;;;;7.53;4.37;;;;;;;28.95;28.67;99806.25;7475233;26;20316;-88
2024/04/13 10:21:18;;;;;;;6.47;3.57;;;;;;;29.09;27.54;99776.59;7432701;26;20593;-84
2024/04/13 10:24:47;;;;;;;5.37;2.90;;;;;;;28.78;27.51;99767.03;7430505;26;20226;-85
2024/04/13 10:28:14;;;;;;;7.07;3.40;;;;;;;29.27;26.99;99794.34;7432145;26;20232;-84
2024/04/13 10:31:39;;;;;;;7.60;3.60;;;;;;;30.28;25.55;99775.53;7433684;26;20241;-82
2024/04/13 10:35:07;;;;;;;6.87;2.80;;;;;;;30.45;26.63;99792.44;7447746;26;20323;-84
2024/04/13 10:38:33;;;;;;;5.73;3.17;;;;;;;28.30;28.14;99748.00;7480371;26;20253;-85
2024/04/13 10:41:54;;;;;;;3.93;2.70;;;;;;;29.18;28.03;99777.53;7474982;26;20241;-88
2024/04/13 10:45:21;;;;;;;4.97;2.53;;;;;;;28.82;27.67;99770.03;7479902;26;20253;-83
2024/04/13 10:48:44;;;;;;;8.40;3.57;;;;;;;29.59;27.14;99738.78;7479808;26;20273;-82
2024/04/13 10:52:10;;;;;;;4.63;2.60;;;;;;;29.54;26.97;99736.91;7476582;26;20239;-85
2024/04/13 10:55:34;;;;;;;7.33;2.53;;;;;;;30.45;26.06;99719.22;7477882;26;20226;-83
2024/04/13 10:58:58;;;;;;;2.97;2.43;;;;;;;30.28;25.98;99719.88;7480299;26;20223;-85
2024/04/13 11:02:22;;;;;;;2.70;2.30;;;;;;;30.48;26.04;99729.75;7476753;26;20277;-81
2024/04/13 11:05:47;;;;;;;5.20;2.37;;;;;;;29.85;26.65;99740.75;7476035;26;20261;-84
2024/04/13 11:09:07;;;;;;;3.40;2.50;;;;;;;31.10;24.51;99751.94;7470786;26;20593;-83
2024/04/13 11:12:32;;;;;;;4.93;2.13;;;;;;;30.56;24.77;99746.53;7474917;26;20686;-83
2024/04/13 11:15:53;;;;;;;4.60;2.30;;;;;;;30.95;25.02;99741.16;7477026;26;20634;-86
2024/04/13 11:19:26;;;;;;;3.93;2.00;;;;;;;31.06;24.80;99713.88;7486922;26;20277;-85
2024/04/13 11:22:47;;;;;;;3.00;2.20;;;;;;;31.33;24.28;99736.91;7488202;26;20231;-86
2024/04/13 11:26:14;;;;;;;2.97;2.00;;;;;;;32.17;23.10;99732.06;7482319;26;20575;-83
2024/04/13 11:29:39;;;;;;;4.90;1.83;;;;;;;31.30;23.15;99720.78;7446980;26;20291;-81
2024/04/13 11:33:05;;;;;;;4.50;1.90;;;;;;;31.14;24.14;99690.81;7450004;26;20258;-81
2024/04/13 11:36:28;;;;;;;3.27;2.00;;;;;;;32.00;23.61;99712.47;7475025;26;21138;-83
2024/04/13 11:39:52;;;;;;;2.73;2.00;;;;;;;31.44;24.00;99715.94;7474645;26;20351;-82
2024/04/13 11:43:12;;;;;;;4.70;2.10;;;;;;;29.80;24.73;99663.03;7459600;26;20241;-82
2024/04/13 11:46:35;;;;;;;3.27;1.90;;;;;;;30.69;24.58;99667.72;7474666;26;20284;-83
2024/04/13 11:50:00;;;;;;;4.13;2.00;;;;;;;31.03;23.93;99690.28;7434669;26;20243;-82
2024/04/13 11:53:23;;;;;;;4.83;1.80;;;;;;;30.85;23.83;99691.25;7465470;26;20239;-82
2024/04/13 11:56:46;;;;;;;6.10;1.80;;;;;;;30.97;24.07;99682.34;7483534;26;20304;-80
2024/04/13 12:00:08;;;;;;;2.43;1.80;;;;;;;31.51;22.95;99665.31;7460555;26;20600;-82
2024/04/13 12:03:31;;;;;;;3.13;2.10;;;;;;;31.42;23.07;99661.69;7344856;26;20378;-82
2024/04/13 12:06:51;;;;;;;4.13;2.00;;;;;;;29.55;24.84;99657.94;7379167;26;20376;-82
2024/04/13 12:10:17;;;;;;;2.30;1.80;;;;;;;31.09;23.49;99630.50;7333461;26;20251;-82
2024/04/13 12:13:42;;;;;;;3.33;1.57;;;;;;;31.71;22.62;99632.09;7331927;26;20285;-82
2024/04/13 12:17:05;;;;;;;2.17;1.87;;;;;;;32.09;22.61;99646.34;7361857;26;20279;-83
2024/04/13 12:20:28;;;;;;;2.00;1.70;;;;;;;30.55;23.70;99627.94;7375023;26;20280;-81
2024/04/13 12:23:49;;;;;;;2.37;1.80;;;;;;;30.08;23.81;99647.94;7366421;26;20242;-78
2024/04/13 12:27:15;;;;;;;2.67;1.83;;;;;;;31.57;22.75;99633.34;7355193;26;20245;-79
2024/04/13 12:30:39;;;;;;;2.93;1.57;;;;;;;31.51;23.00;99638.28;7365129;26;20254;-78
2024/04/13 12:34:06;;;;;;;2.10;1.73;;;;;;;31.85;22.16;99637.59;7355693;26;20237;-79
2024/04/13 12:37:26;;;;;;;3.93;1.60;;;;;;;31.86;21.91;99619.69;7340414;26;20273;-79
2024/04/13 12:40:49;;;;;;;4.20;2.10;;;;;;;32.13;22.16;99619.44;7355228;26;20251;-79
2024/04/13 12:44:15;;;;;;;3.87;2.03;;;;;;;32.35;22.28;99614.56;7358760;26;20268;-78
2024/04/13 12:47:38;;;;;;;2.73;1.63;;;;;;;32.08;22.78;99605.63;7360045;26;20232;-79
2024/04/13 12:50:59;;;;;;;3.97;1.57;;;;;;;32.31;21.25;99596.81;7360281;26;20597;-80
2024/04/13 12:54:22;;;;;;;1.97;1.83;;;;;;;31.25;22.28;99595.50;7347726;26;20705;-79
2024/04/13 12:57:45;;;;;;;1.53;1.43;;;;;;;31.95;22.20;99554.41;7351810;26;20269;-80
2024/04/13 13:01:11;;;;;;;2.30;1.80;;;;;;;30.68;22.90;99579.75;7346329;26;20247;-79
2024/04/13 13:04:34;;;;;;;3.57;2.00;;;;;;;31.40;23.59;99569.16;7353045;26;20225;-79
2024/04/13 13:07:55;;;;;;;2.33;2.00;;;;;;;32.08;22.95;99564.56;7356903;26;20282;-80
2024/04/13 13:11:18;;;;;;;3.73;2.10;;;;;;;31.53;23.19;99565.44;7357688;26;20241;-80
2024/04/13 13:14:41;;;;;;;2.70;2.10;;;;;;;31.50;23.58;99561.34;7363119;26;20238;-79
2024/04/13 13:18:08;;;;;;;3.00;2.23;;;;;;;30.65;23.42;99513.56;7349783;26;20729;-79
2024/04/13 13:21:31;;;;;;;3.00;1.80;;;;;;;30.51;23.97;99548.97;7343033;26;20354;-81
2024/04/13 13:24:52;;;;;;;3.43;2.00;;;;;;;32.03;22.42;99544.41;7376707;26;20268;-81
2024/04/13 13:28:15;;;;;;;3.47;2.10;;;;;;;31.35;23.85;99533.91;7375187;26;20225;-81
2024/04/13 13:31:38;;;;;;;4.53;2.20;;;;;;;31.71;23.57;99525.28;7344508;26;20243;-78
2024/04/13 13:35:04;;;;;;;4.27;2.13;;;;;;;31.56;23.77;99529.38;7328328;27;21025;-79
2024/04/13 13:38:25;;;;;;;3.23;2.03;;;;;;;32.05;22.71;99517.81;7329023;27;20607;-80
2024/04/13 13:41:48;;;;;;;2.87;2.50;;;;;;;31.72;22.82;99519.41;7329501;26;20784;-79
2024/04/13 13:45:08;;;;;;;2.40;2.17;;;;;;;31.63;22.15;99501.84;7328692;27;20227;-79
2024/04/13 13:48:32;;;;;;;4.43;2.17;;;;;;;32.46;22.19;99494.97;7329944;26;20276;-80
2024/04/13 13:51:57;;;;;;;3.57;2.00;;;;;;;32.46;22.48;99497.75;7333347;26;20276;-83
2024/04/13 13:55:18;;;;;;;3.00;1.90;;;;;;;31.88;23.22;99498.28;7332973;26;20278;-82
2024/04/13 13:58:41;;;;;;;5.67;1.87;;;;;;;31.52;22.52;99457.84;7331732;27;20226;-83
2024/04/13 14:02:06;;;;;;;3.37;1.90;;;;;;;31.52;22.93;99444.72;7335436;26;20281;-82
2024/04/13 14:05:28;;;;;;;2.83;2.10;;;;;;;32.18;22.70;99443.41;7351529;26;20323;-83
2024/04/13 14:08:54;;;;;;;2.00;1.70;;;;;;;32.93;21.33;99438.81;7378395;26;20245;-83
2024/04/13 14:12:15;;;;;;;4.30;2.43;;;;;;;32.70;21.35;99437.41;7375905;26;20639;-84
2024/04/13 14:15:39;;;;;;;2.23;1.80;;;;;;;31.87;22.25;99431.63;7379107;26;20861;-81
2024/04/13 14:19:02;;;;;;;3.23;2.27;;;;;;;31.96;22.14;99452.00;7379553;26;20253;-83
2024/04/13 14:22:24;;;;;;;3.53;2.27;;;;;;;31.71;22.80;99420.13;7377110;26;20244;-84
2024/04/13 14:25:50;;;;;;;1.90;1.80;;;;;;;32.58;22.10;99434.50;7337144;26;22134;-83
2024/04/13 14:29:11;;;;;;;2.40;1.87;;;;;;;32.81;21.08;99435.91;7375962;26;20268;-82
2024/04/13 14:32:34;;;;;;;3.30;2.10;;;;;;;31.95;21.95;99430.84;7408198;26;20229;-81
2024/04/13 14:35:55;;;;;;;4.53;1.77;;;;;;;32.44;21.72;99424.69;7421855;26;20284;-81
2024/04/13 14:39:19;;;;;;;2.60;2.17;;;;;;;31.90;22.64;99403.91;7425300;26;20237;-83
2024/04/13 14:42:46;;;;;;;3.37;2.23;;;;;;;30.17;23.80;99379.00;7428343;26;20240;-83
2024/04/13 14:46:12;;;;;;;2.27;1.93;;;;;;;31.37;22.90;99400.59;7403295;26;20349;-83
2024/04/13 14:49:50;;;;;;;4.17;2.03;;;;;;;31.82;22.63;99365.69;7417511;26;20252;-83
2024/04/13 14:53:11;;;;;;;5.90;2.10;;;;;;;31.98;22.86;99374.34;7232968;27;20364;-83
2024/04/13 14:56:34;;;;;;;4.00;2.30;;;;;;;31.75;22.89;99365.38;7234076;27;20291;-82
2024/04/13 14:59:58;;;;;;;5.57;2.20;;;;;;;31.38;23.28;99399.44;7230867;27;20664;-82
2024/04/13 15:03:21;;;;;;;3.90;2.10;;;;;;;31.83;22.98;99388.84;7234249;27;20244;-83
2024/04/13 15:06:45;;;;;;;2.73;2.00;;;;;;;31.99;22.56;99401.94;7227014;27;20243;-82
2024/04/13 15:10:22;;;;;;;5.40;2.20;;;;;;;31.59;22.65;99358.63;7229233;27;20332;-81
2024/04/13 15:13:45;;;;;;;3.90;2.13;;;;;;;31.76;22.44;99389.31;7215991;27;20302;-81
2024/04/13 15:17:12;;;;;;;5.20;2.40;;;;;;;31.17;23.19;99350.22;7220651;27;20252;-80
2024/04/13 15:20:38;;;;;;;4.70;2.67;;;;;;;31.05;24.22;99375.94;7218696;27;20253;-85
2024/04/13 15:24:01;;;;;;;3.83;2.23;;;;;;;31.17;23.92;99376.13;7227840;27;20281;-81
2024/04/13 15:27:54;;;;;;;4.27;2.30;;;;;;;30.99;24.01;99340.19;7188890;27;20231;-78
2024/04/13 15:31:15;;;;;;;4.00;2.03;;;;;;;31.25;23.89;99366.16;7384208;26;20251;-80
2024/04/13 15:34:40;;;;;;;3.30;2.30;;;;;;;31.46;24.01;99367.16;7398376;26;20589;-80
2024/04/13 15:38:01;;;;;;;2.50;2.00;;;;;;;31.24;23.46;99354.19;7404983;26;20233;-81
2024/04/13 15:41:24;;;;;;;3.27;2.03;;;;;;;31.09;24.12;99363.00;7407887;26;20236;-79
2024/04/13 15:44:47;;;;;;;3.97;2.30;;;;;;;30.90;24.03;99350.50;7412563;26;20663;-79
2024/04/13 15:48:08;;;;;;;4.20;2.20;;;;;;;30.99;23.60;99318.75;7404053;26;20267;-79
2024/04/13 15:51:34;;;;;;;2.03;1.87;;;;;;;31.43;23.87;99354.69;7411747;26;20251;-79
2024/04/13 15:54:57;;;;;;;9.60;2.50;;;;;;;31.15;24.61;99350.56;7418742;26;20582;-80
2024/04/13 15:58:17;;;;;;;5.10;2.30;;;;;;;31.62;24.28;99352.41;7404201;26;20236;-79